sensor_id;sensor_type;location;lat;lon;timestamp;P1;durP1;ratioP1;P2;durP2;ratioP2
63534;SDS011;55128;50.230;18.944;2023-02-26T00:01:44;11.35;;;6.97;;
63534;SDS011;55128;50.230;18.944;2023-02-26T00:06:45;12.57;;;7.65;;
63534;SDS011;55128;50.230;18.944;2023-02-26T00:11:52;13.20;;;7.93;;
63534;SDS011;55128;50.230;18.944;2023-02-26T00:16:57;12.20;;;8.15;;
63534;SDS011;55128;50.230;18.944;2023-02-26T00:22:29;13.70;;;8.23;;
63534;SDS011;55128;50.230;18.944;2023-02-26T00:27:30;12.82;;;8.40;;
63534;SDS011;55128;50.230;18.944;2023-02-26T00:32:30;13.20;;;8.83;;
63534;SDS011;55128;50.230;18.944;2023-02-26T00:43:25;13.98;;;8.38;;
63534;SDS011;55128;50.230;18.944;2023-02-26T00:48:34;14.18;;;8.73;;
63534;SDS011;55128;50.230;18.944;2023-02-26T00:53:43;12.95;;;8.68;;
63534;SDS011;55128;50.230;18.944;2023-02-26T00:58:48;11.43;;;7.95;;
63534;SDS011;55128;50.230;18.944;2023-02-26T01:03:48;10.93;;;7.60;;
63534;SDS011;55128;50.230;18.944;2023-02-26T01:13:53;10.45;;;7.22;;
63534;SDS011;55128;50.230;18.944;2023-02-26T01:24:19;11.43;;;8.63;;
63534;SDS011;55128;50.230;18.944;2023-02-26T01:29:22;12.18;;;8.65;;
63534;SDS011;55128;50.230;18.944;2023-02-26T01:34:36;12.55;;;8.38;;
63534;SDS011;55128;50.230;18.944;2023-02-26T01:45:22;15.02;;;9.50;;
63534;SDS011;55128;50.230;18.944;2023-02-26T01:50:34;11.90;;;9.20;;
63534;SDS011;55128;50.230;18.944;2023-02-26T01:55:35;14.02;;;8.90;;
63534;SDS011;55128;50.230;18.944;2023-02-26T02:00:36;9.93;;;8.73;;
63534;SDS011;55128;50.230;18.944;2023-02-26T02:05:47;9.57;;;6.90;;
63534;SDS011;55128;50.230;18.944;2023-02-26T02:10:50;9.40;;;6.10;;
63534;SDS011;55128;50.230;18.944;2023-02-26T02:16:35;8.60;;;6.28;;
63534;SDS011;55128;50.230;18.944;2023-02-26T02:26:55;8.98;;;6.65;;
63534;SDS011;55128;50.230;18.944;2023-02-26T02:32:05;12.30;;;7.53;;
63534;SDS011;55128;50.230;18.944;2023-02-26T02:37:17;9.98;;;7.43;;
63534;SDS011;55128;50.230;18.944;2023-02-26T02:42:20;9.98;;;6.90;;
63534;SDS011;55128;50.230;18.944;2023-02-26T02:47:21;10.10;;;6.03;;
63534;SDS011;55128;50.230;18.944;2023-02-26T02:52:25;8.30;;;5.78;;
63534;SDS011;55128;50.230;18.944;2023-02-26T02:57:42;7.38;;;4.72;;
63534;SDS011;55128;50.230;18.944;2023-02-26T03:02:56;5.32;;;4.22;;
63534;SDS011;55128;50.230;18.944;2023-02-26T03:08:08;7.03;;;4.47;;
63534;SDS011;55128;50.230;18.944;2023-02-26T03:13:16;6.93;;;4.80;;
63534;SDS011;55128;50.230;18.944;2023-02-26T03:18:22;6.20;;;4.75;;
63534;SDS011;55128;50.230;18.944;2023-02-26T03:23:47;7.22;;;5.05;;
63534;SDS011;55128;50.230;18.944;2023-02-26T03:28:53;6.88;;;4.45;;
63534;SDS011;55128;50.230;18.944;2023-02-26T03:34:18;9.27;;;4.10;;
63534;SDS011;55128;50.230;18.944;2023-02-26T03:39:24;8.25;;;4.55;;
63534;SDS011;55128;50.230;18.944;2023-02-26T03:44:33;8.80;;;5.00;;
63534;SDS011;55128;50.230;18.944;2023-02-26T03:55:02;9.45;;;5.18;;
63534;SDS011;55128;50.230;18.944;2023-02-26T04:00:32;6.10;;;4.38;;
63534;SDS011;55128;50.230;18.944;2023-02-26T04:05:38;7.32;;;5.38;;
63534;SDS011;55128;50.230;18.944;2023-02-26T04:10:43;9.48;;;5.05;;
63534;SDS011;55128;50.230;18.944;2023-02-26T04:15:50;7.82;;;4.85;;
63534;SDS011;55128;50.230;18.944;2023-02-26T04:20:51;8.63;;;5.40;;
63534;SDS011;55128;50.230;18.944;2023-02-26T04:25:51;7.63;;;4.47;;
63534;SDS011;55128;50.230;18.944;2023-02-26T04:30:51;6.63;;;4.20;;
63534;SDS011;55128;50.230;18.944;2023-02-26T04:35:52;5.53;;;3.70;;
63534;SDS011;55128;50.230;18.944;2023-02-26T04:40:52;5.53;;;3.80;;
63534;SDS011;55128;50.230;18.944;2023-02-26T04:45:52;6.73;;;3.67;;
63534;SDS011;55128;50.230;18.944;2023-02-26T04:50:53;7.57;;;4.78;;
63534;SDS011;55128;50.230;18.944;2023-02-26T04:55:53;8.38;;;5.50;;
63534;SDS011;55128;50.230;18.944;2023-02-26T05:00:54;7.57;;;4.57;;
63534;SDS011;55128;50.230;18.944;2023-02-26T05:05:56;9.48;;;5.20;;
63534;SDS011;55128;50.230;18.944;2023-02-26T05:10:56;11.93;;;6.55;;
63534;SDS011;55128;50.230;18.944;2023-02-26T05:15:57;15.03;;;7.97;;
63534;SDS011;55128;50.230;18.944;2023-02-26T05:20:57;11.98;;;6.63;;
63534;SDS011;55128;50.230;18.944;2023-02-26T05:25:58;12.38;;;6.32;;
63534;SDS011;55128;50.230;18.944;2023-02-26T05:30:58;12.07;;;6.40;;
63534;SDS011;55128;50.230;18.944;2023-02-26T05:35:58;10.10;;;5.72;;
63534;SDS011;55128;50.230;18.944;2023-02-26T05:40:59;13.57;;;6.22;;
63534;SDS011;55128;50.230;18.944;2023-02-26T05:46:00;9.57;;;5.13;;
63534;SDS011;55128;50.230;18.944;2023-02-26T05:51:00;12.00;;;6.38;;
63534;SDS011;55128;50.230;18.944;2023-02-26T05:56:01;14.63;;;6.22;;
63534;SDS011;55128;50.230;18.944;2023-02-26T06:01:02;14.27;;;6.53;;
63534;SDS011;55128;50.230;18.944;2023-02-26T06:06:02;16.02;;;7.70;;
63534;SDS011;55128;50.230;18.944;2023-02-26T06:11:03;14.10;;;8.20;;
63534;SDS011;55128;50.230;18.944;2023-02-26T06:16:04;11.55;;;7.00;;
63534;SDS011;55128;50.230;18.944;2023-02-26T06:21:04;12.40;;;6.57;;
63534;SDS011;55128;50.230;18.944;2023-02-26T06:26:05;13.80;;;7.07;;
63534;SDS011;55128;50.230;18.944;2023-02-26T06:31:05;10.60;;;8.07;;
63534;SDS011;55128;50.230;18.944;2023-02-26T06:36:05;10.17;;;7.80;;
63534;SDS011;55128;50.230;18.944;2023-02-26T06:41:07;8.48;;;6.45;;
63534;SDS011;55128;50.230;18.944;2023-02-26T06:46:07;11.20;;;7.30;;
63534;SDS011;55128;50.230;18.944;2023-02-26T06:51:08;9.98;;;7.30;;
63534;SDS011;55128;50.230;18.944;2023-02-26T06:56:08;12.23;;;8.25;;
63534;SDS011;55128;50.230;18.944;2023-02-26T07:01:09;11.68;;;7.72;;
63534;SDS011;55128;50.230;18.944;2023-02-26T07:06:10;11.43;;;7.22;;
63534;SDS011;55128;50.230;18.944;2023-02-26T07:11:11;11.43;;;7.13;;
63534;SDS011;55128;50.230;18.944;2023-02-26T07:16:11;11.27;;;8.20;;
63534;SDS011;55128;50.230;18.944;2023-02-26T07:21:12;10.10;;;7.43;;
63534;SDS011;55128;50.230;18.944;2023-02-26T07:26:12;14.25;;;9.20;;
63534;SDS011;55128;50.230;18.944;2023-02-26T07:31:12;13.20;;;8.73;;
63534;SDS011;55128;50.230;18.944;2023-02-26T07:36:15;12.40;;;8.32;;
63534;SDS011;55128;50.230;18.944;2023-02-26T07:41:16;14.38;;;9.43;;
63534;SDS011;55128;50.230;18.944;2023-02-26T07:46:16;16.42;;;10.02;;
63534;SDS011;55128;50.230;18.944;2023-02-26T07:51:16;15.00;;;9.77;;
63534;SDS011;55128;50.230;18.944;2023-02-26T07:56:17;14.70;;;9.38;;
63534;SDS011;55128;50.230;18.944;2023-02-26T08:01:17;13.73;;;9.87;;
63534;SDS011;55128;50.230;18.944;2023-02-26T08:06:17;14.60;;;9.15;;
63534;SDS011;55128;50.230;18.944;2023-02-26T08:11:18;13.20;;;9.25;;
63534;SDS011;55128;50.230;18.944;2023-02-26T08:16:18;11.40;;;8.80;;
63534;SDS011;55128;50.230;18.944;2023-02-26T08:21:19;11.05;;;7.63;;
63534;SDS011;55128;50.230;18.944;2023-02-26T08:26:19;7.47;;;5.83;;
63534;SDS011;55128;50.230;18.944;2023-02-26T08:31:20;11.38;;;4.82;;
63534;SDS011;55128;50.230;18.944;2023-02-26T08:36:20;7.73;;;3.23;;
63534;SDS011;55128;50.230;18.944;2023-02-26T08:41:21;6.15;;;3.72;;
63534;SDS011;55128;50.230;18.944;2023-02-26T08:46:21;8.55;;;4.75;;
63534;SDS011;55128;50.230;18.944;2023-02-26T08:51:22;7.60;;;5.30;;
63534;SDS011;55128;50.230;18.944;2023-02-26T08:56:22;6.38;;;4.75;;
63534;SDS011;55128;50.230;18.944;2023-02-26T09:01:23;10.60;;;5.40;;
63534;SDS011;55128;50.230;18.944;2023-02-26T09:06:23;9.18;;;5.10;;
63534;SDS011;55128;50.230;18.944;2023-02-26T09:11:24;9.33;;;6.07;;
63534;SDS011;55128;50.230;18.944;2023-02-26T09:16:24;8.07;;;5.72;;
63534;SDS011;55128;50.230;18.944;2023-02-26T09:21:25;17.75;;;12.05;;
63534;SDS011;55128;50.230;18.944;2023-02-26T09:26:25;8.77;;;5.85;;
63534;SDS011;55128;50.230;18.944;2023-02-26T09:31:27;6.55;;;3.88;;
63534;SDS011;55128;50.230;18.944;2023-02-26T09:36:27;3.90;;;2.10;;
63534;SDS011;55128;50.230;18.944;2023-02-26T09:41:33;3.85;;;2.10;;
63534;SDS011;55128;50.230;18.944;2023-02-26T09:46:59;5.78;;;3.28;;
63534;SDS011;55128;50.230;18.944;2023-02-26T09:52:32;3.70;;;2.50;;
63534;SDS011;55128;50.230;18.944;2023-02-26T09:57:40;3.05;;;2.00;;
63534;SDS011;55128;50.230;18.944;2023-02-26T10:08:05;6.85;;;4.78;;
63534;SDS011;55128;50.230;18.944;2023-02-26T10:13:22;8.15;;;4.93;;
63534;SDS011;55128;50.230;18.944;2023-02-26T10:18:31;10.38;;;6.20;;
63534;SDS011;55128;50.230;18.944;2023-02-26T10:23:43;10.75;;;6.20;;
63534;SDS011;55128;50.230;18.944;2023-02-26T10:28:53;11.68;;;8.15;;
63534;SDS011;55128;50.230;18.944;2023-02-26T10:34:28;8.23;;;4.40;;
63534;SDS011;55128;50.230;18.944;2023-02-26T11:00:43;27.65;;;8.85;;
63534;SDS011;55128;50.230;18.944;2023-02-26T11:05:46;9.38;;;5.50;;
63534;SDS011;55128;50.230;18.944;2023-02-26T11:10:49;10.95;;;6.20;;
63534;SDS011;55128;50.230;18.944;2023-02-26T11:15:59;9.48;;;6.35;;
63534;SDS011;55128;50.230;18.944;2023-02-26T11:21:03;8.93;;;4.75;;
63534;SDS011;55128;50.230;18.944;2023-02-26T11:26:05;10.05;;;7.00;;
63534;SDS011;55128;50.230;18.944;2023-02-26T11:31:09;6.45;;;4.78;;
63534;SDS011;55128;50.230;18.944;2023-02-26T11:36:14;5.90;;;3.80;;
63534;SDS011;55128;50.230;18.944;2023-02-26T11:41:19;5.68;;;3.15;;
63534;SDS011;55128;50.230;18.944;2023-02-26T11:46:23;7.30;;;3.55;;
63534;SDS011;55128;50.230;18.944;2023-02-26T11:51:25;6.78;;;3.50;;
63534;SDS011;55128;50.230;18.944;2023-02-26T11:56:37;9.13;;;5.72;;
63534;SDS011;55128;50.230;18.944;2023-02-26T12:01:42;16.33;;;10.70;;
63534;SDS011;55128;50.230;18.944;2023-02-26T12:06:44;10.23;;;5.45;;
63534;SDS011;55128;50.230;18.944;2023-02-26T12:12:07;9.02;;;4.50;;
63534;SDS011;55128;50.230;18.944;2023-02-26T12:17:34;8.98;;;4.97;;
63534;SDS011;55128;50.230;18.944;2023-02-26T12:22:47;10.00;;;5.53;;
63534;SDS011;55128;50.230;18.944;2023-02-26T12:38:18;8.95;;;5.40;;
63534;SDS011;55128;50.230;18.944;2023-02-26T13:04:53;13.32;;;5.75;;
63534;SDS011;55128;50.230;18.944;2023-02-26T13:10:00;13.80;;;6.57;;
63534;SDS011;55128;50.230;18.944;2023-02-26T13:20:27;17.58;;;8.80;;
63534;SDS011;55128;50.230;18.944;2023-02-26T13:25:35;16.10;;;8.38;;
63534;SDS011;55128;50.230;18.944;2023-02-26T13:30:42;22.73;;;10.15;;
63534;SDS011;55128;50.230;18.944;2023-02-26T13:35:47;16.85;;;7.70;;
63534;SDS011;55128;50.230;18.944;2023-02-26T13:51:44;9.32;;;5.18;;
63534;SDS011;55128;50.230;18.944;2023-02-26T13:56:58;11.70;;;6.63;;
63534;SDS011;55128;50.230;18.944;2023-02-26T14:07:44;16.85;;;7.68;;
63534;SDS011;55128;50.230;18.944;2023-02-26T14:23:30;16.92;;;11.38;;
63534;SDS011;55128;50.230;18.944;2023-02-26T14:28:41;18.90;;;10.57;;
63534;SDS011;55128;50.230;18.944;2023-02-26T14:33:45;12.77;;;7.57;;
63534;SDS011;55128;50.230;18.944;2023-02-26T14:39:28;14.57;;;9.07;;
63534;SDS011;55128;50.230;18.944;2023-02-26T14:44:35;17.80;;;9.68;;
63534;SDS011;55128;50.230;18.944;2023-02-26T14:49:41;12.20;;;7.25;;
63534;SDS011;55128;50.230;18.944;2023-02-26T14:55:00;15.70;;;6.72;;
63534;SDS011;55128;50.230;18.944;2023-02-26T15:16:22;11.32;;;8.30;;
63534;SDS011;55128;50.230;18.944;2023-02-26T15:21:50;10.98;;;5.80;;
63534;SDS011;55128;50.230;18.944;2023-02-26T15:27:00;11.27;;;6.50;;
63534;SDS011;55128;50.230;18.944;2023-02-26T15:32:22;12.32;;;6.82;;
63534;SDS011;55128;50.230;18.944;2023-02-26T15:37:26;11.80;;;7.47;;
63534;SDS011;55128;50.230;18.944;2023-02-26T15:42:38;15.25;;;9.38;;
63534;SDS011;55128;50.230;18.944;2023-02-26T15:47:40;12.50;;;9.45;;
63534;SDS011;55128;50.230;18.944;2023-02-26T15:52:40;18.60;;;8.85;;
63534;SDS011;55128;50.230;18.944;2023-02-26T15:57:41;13.23;;;6.85;;
63534;SDS011;55128;50.230;18.944;2023-02-26T16:02:42;13.70;;;7.00;;
63534;SDS011;55128;50.230;18.944;2023-02-26T16:07:44;13.95;;;8.13;;
63534;SDS011;55128;50.230;18.944;2023-02-26T16:12:45;14.65;;;8.88;;
63534;SDS011;55128;50.230;18.944;2023-02-26T16:17:48;13.95;;;8.02;;
63534;SDS011;55128;50.230;18.944;2023-02-26T16:23:03;14.65;;;9.15;;
63534;SDS011;55128;50.230;18.944;2023-02-26T16:28:19;14.32;;;8.20;;
63534;SDS011;55128;50.230;18.944;2023-02-26T16:33:23;18.00;;;14.10;;
63534;SDS011;55128;50.230;18.944;2023-02-26T16:38:26;19.08;;;10.30;;
63534;SDS011;55128;50.230;18.944;2023-02-26T16:48:36;15.50;;;9.65;;
63534;SDS011;55128;50.230;18.944;2023-02-26T16:53:46;12.85;;;9.18;;
63534;SDS011;55128;50.230;18.944;2023-02-26T16:58:52;18.70;;;12.15;;
63534;SDS011;55128;50.230;18.944;2023-02-26T17:03:58;17.95;;;11.05;;
63534;SDS011;55128;50.230;18.944;2023-02-26T17:09:01;14.27;;;9.40;;
63534;SDS011;55128;50.230;18.944;2023-02-26T17:14:03;17.95;;;11.98;;
63534;SDS011;55128;50.230;18.944;2023-02-26T17:19:11;15.63;;;10.45;;
63534;SDS011;55128;50.230;18.944;2023-02-26T17:24:15;15.80;;;8.77;;
63534;SDS011;55128;50.230;18.944;2023-02-26T17:29:37;14.63;;;8.00;;
63534;SDS011;55128;50.230;18.944;2023-02-26T17:34:39;15.05;;;7.55;;
63534;SDS011;55128;50.230;18.944;2023-02-26T17:39:40;12.27;;;6.75;;
63534;SDS011;55128;50.230;18.944;2023-02-26T17:44:41;15.02;;;7.75;;
63534;SDS011;55128;50.230;18.944;2023-02-26T17:49:42;28.63;;;10.63;;
63534;SDS011;55128;50.230;18.944;2023-02-26T17:54:43;22.38;;;11.93;;
63534;SDS011;55128;50.230;18.944;2023-02-26T17:59:44;17.98;;;10.95;;
63534;SDS011;55128;50.230;18.944;2023-02-26T18:04:45;15.63;;;8.77;;
63534;SDS011;55128;50.230;18.944;2023-02-26T18:09:46;19.37;;;9.60;;
63534;SDS011;55128;50.230;18.944;2023-02-26T18:14:47;35.78;;;18.90;;
63534;SDS011;55128;50.230;18.944;2023-02-26T18:19:48;29.50;;;15.43;;
63534;SDS011;55128;50.230;18.944;2023-02-26T18:24:48;18.45;;;9.85;;
63534;SDS011;55128;50.230;18.944;2023-02-26T18:29:48;24.63;;;12.98;;
63534;SDS011;55128;50.230;18.944;2023-02-26T18:34:49;47.70;;;24.65;;
63534;SDS011;55128;50.230;18.944;2023-02-26T18:39:50;56.20;;;29.02;;
63534;SDS011;55128;50.230;18.944;2023-02-26T18:44:51;58.78;;;27.33;;
63534;SDS011;55128;50.230;18.944;2023-02-26T18:49:53;42.45;;;20.75;;
63534;SDS011;55128;50.230;18.944;2023-02-26T18:54:53;21.20;;;11.80;;
63534;SDS011;55128;50.230;18.944;2023-02-26T18:59:54;27.27;;;13.48;;
63534;SDS011;55128;50.230;18.944;2023-02-26T19:04:55;33.85;;;16.25;;
63534;SDS011;55128;50.230;18.944;2023-02-26T19:09:55;36.42;;;17.52;;
63534;SDS011;55128;50.230;18.944;2023-02-26T19:14:55;27.33;;;14.73;;
63534;SDS011;55128;50.230;18.944;2023-02-26T19:19:56;22.80;;;13.40;;
63534;SDS011;55128;50.230;18.944;2023-02-26T19:24:56;56.57;;;21.43;;
63534;SDS011;55128;50.230;18.944;2023-02-26T19:29:56;44.78;;;18.05;;
63534;SDS011;55128;50.230;18.944;2023-02-26T19:34:57;29.98;;;13.77;;
63534;SDS011;55128;50.230;18.944;2023-02-26T19:39:57;56.53;;;19.70;;
63534;SDS011;55128;50.230;18.944;2023-02-26T19:44:58;32.75;;;15.38;;
63534;SDS011;55128;50.230;18.944;2023-02-26T19:49:58;60.42;;;26.75;;
63534;SDS011;55128;50.230;18.944;2023-02-26T19:54:59;44.53;;;19.58;;
63534;SDS011;55128;50.230;18.944;2023-02-26T19:59:59;57.63;;;30.15;;
63534;SDS011;55128;50.230;18.944;2023-02-26T20:05:02;48.08;;;25.70;;
63534;SDS011;55128;50.230;18.944;2023-02-26T20:10:04;27.17;;;14.65;;
63534;SDS011;55128;50.230;18.944;2023-02-26T20:15:05;25.40;;;14.43;;
63534;SDS011;55128;50.230;18.944;2023-02-26T20:20:07;28.00;;;16.65;;
63534;SDS011;55128;50.230;18.944;2023-02-26T20:25:08;30.52;;;16.92;;
63534;SDS011;55128;50.230;18.944;2023-02-26T20:30:09;50.15;;;27.55;;
63534;SDS011;55128;50.230;18.944;2023-02-26T20:35:10;47.55;;;26.52;;
63534;SDS011;55128;50.230;18.944;2023-02-26T20:40:10;46.85;;;24.98;;
63534;SDS011;55128;50.230;18.944;2023-02-26T20:45:11;44.38;;;24.00;;
63534;SDS011;55128;50.230;18.944;2023-02-26T20:50:12;38.57;;;21.50;;
63534;SDS011;55128;50.230;18.944;2023-02-26T20:55:12;39.67;;;22.63;;
63534;SDS011;55128;50.230;18.944;2023-02-26T21:00:13;37.38;;;21.55;;
63534;SDS011;55128;50.230;18.944;2023-02-26T21:05:14;36.55;;;19.98;;
63534;SDS011;55128;50.230;18.944;2023-02-26T21:10:15;29.85;;;16.30;;
63534;SDS011;55128;50.230;18.944;2023-02-26T21:15:17;29.35;;;16.17;;
63534;SDS011;55128;50.230;18.944;2023-02-26T21:20:17;33.28;;;16.33;;
63534;SDS011;55128;50.230;18.944;2023-02-26T21:25:18;46.53;;;24.65;;
63534;SDS011;55128;50.230;18.944;2023-02-26T21:30:19;36.03;;;18.17;;
63534;SDS011;55128;50.230;18.944;2023-02-26T21:35:19;33.20;;;18.13;;
63534;SDS011;55128;50.230;18.944;2023-02-26T21:40:20;30.25;;;15.80;;
63534;SDS011;55128;50.230;18.944;2023-02-26T21:45:20;28.02;;;16.38;;
63534;SDS011;55128;50.230;18.944;2023-02-26T21:50:20;25.77;;;12.40;;
63534;SDS011;55128;50.230;18.944;2023-02-26T21:55:21;46.75;;;20.70;;
63534;SDS011;55128;50.230;18.944;2023-02-26T22:00:22;29.08;;;13.27;;
63534;SDS011;55128;50.230;18.944;2023-02-26T22:05:22;20.13;;;9.65;;
63534;SDS011;55128;50.230;18.944;2023-02-26T22:10:23;26.45;;;11.48;;
63534;SDS011;55128;50.230;18.944;2023-02-26T22:15:23;21.40;;;10.00;;
63534;SDS011;55128;50.230;18.944;2023-02-26T22:20:23;17.65;;;9.75;;
63534;SDS011;55128;50.230;18.944;2023-02-26T22:25:24;18.30;;;8.93;;
63534;SDS011;55128;50.230;18.944;2023-02-26T22:30:25;15.30;;;8.30;;
63534;SDS011;55128;50.230;18.944;2023-02-26T22:35:25;18.40;;;8.83;;
63534;SDS011;55128;50.230;18.944;2023-02-26T22:40:26;16.25;;;7.43;;
63534;SDS011;55128;50.230;18.944;2023-02-26T22:45:26;17.33;;;7.35;;
63534;SDS011;55128;50.230;18.944;2023-02-26T22:50:26;15.15;;;7.10;;
63534;SDS011;55128;50.230;18.944;2023-02-26T22:55:27;15.85;;;7.10;;
63534;SDS011;55128;50.230;18.944;2023-02-26T23:00:27;26.88;;;17.45;;
63534;SDS011;55128;50.230;18.944;2023-02-26T23:05:28;14.68;;;6.40;;
63534;SDS011;55128;50.230;18.944;2023-02-26T23:10:28;12.13;;;5.78;;
63534;SDS011;55128;50.230;18.944;2023-02-26T23:15:28;16.55;;;6.95;;
63534;SDS011;55128;50.230;18.944;2023-02-26T23:20:29;22.05;;;8.63;;
63534;SDS011;55128;50.230;18.944;2023-02-26T23:25:29;16.13;;;6.15;;
63534;SDS011;55128;50.230;18.944;2023-02-26T23:30:30;22.88;;;8.70;;
63534;SDS011;55128;50.230;18.944;2023-02-26T23:35:30;16.98;;;6.20;;
63534;SDS011;55128;50.230;18.944;2023-02-26T23:40:31;15.33;;;5.90;;
63534;SDS011;55128;50.230;18.944;2023-02-26T23:45:32;19.58;;;6.78;;
63534;SDS011;55128;50.230;18.944;2023-02-26T23:50:32;11.98;;;5.85;;
63534;SDS011;55128;50.230;18.944;2023-02-26T23:55:32;15.85;;;5.60;;
